Time;durP1;ratioP1;P1;durP2;ratioP2;P2;SDS_P1;SDS_P2;PMS_P1;PMS_P2;Temp;Humidity;BMP_temperature;BMP_pressure;BME280_temperature;BME280_humidity;BME280_pressure;Samples;Min_cycle;Max_cycle;Signal;HPM_P1;HPM_P2
2021/11/04 00:01:31;;;;;;;15.53;10.27;;;13.70;99.90;;;;;;5136062;27;20397;-75
2021/11/04 00:03:58;;;;;;;17.57;10.90;;;13.70;99.90;;;;;;5135902;27;20398;-72
2021/11/04 00:06:26;;;;;;;18.33;11.67;;;13.70;99.90;;;;;;5136327;27;20399;-75
2021/11/04 00:08:53;;;;;;;15.40;11.47;;;13.70;99.90;;;;;;5135795;27;20505;-72
2021/11/04 00:11:19;;;;;;;14.50;10.73;;;13.60;99.90;;;;;;5134301;27;20458;-72
2021/11/04 00:13:45;;;;;;;14.60;11.10;;;13.70;99.90;;;;;;5135783;27;20836;-73
2021/11/04 00:16:16;;;;;;;16.23;11.27;;;13.60;99.90;;;;;;5135680;27;20459;-72
2021/11/04 00:18:56;;;;;;;15.87;10.20;;;13.60;99.90;;;;;;5135802;27;20436;-75
2021/11/04 00:21:26;;;;;;;14.17;11.50;;;13.60;99.90;;;;;;5135925;27;20370;-75
2021/11/04 00:24:06;;;;;;;16.20;12.27;;;13.60;99.90;;;;;;5135025;27;20402;-72
2021/11/04 00:26:33;;;;;;;19.17;11.30;;;13.60;99.90;;;;;;5135662;27;20908;-70
2021/11/04 00:28:59;;;;;;;14.30;10.67;;;13.60;99.90;;;;;;5134709;27;20396;-71
2021/11/04 00:31:26;;;;;;;16.27;11.90;;;13.70;99.90;;;;;;5135841;27;20403;-75
2021/11/04 00:33:55;;;;;;;15.77;10.60;;;13.70;99.90;;;;;;5135709;27;20550;-70
2021/11/04 00:36:21;;;;;;;18.80;11.57;;;13.70;99.90;;;;;;5135407;27;20494;-70
2021/11/04 00:41:25;;;;;;;14.97;9.70;;;13.70;99.90;;;;;;5123940;22;20854;-70
2021/11/04 00:43:51;;;;;;;14.70;10.27;;;13.80;99.90;;;;;;5097982;28;20416;-72
2021/11/04 00:46:17;;;;;;;15.00;10.83;;;13.80;99.90;;;;;;5097657;28;20805;-75
2021/11/04 00:48:47;;;;;;;15.80;10.30;;;13.80;99.90;;;;;;5115775;28;20191;-71
2021/11/04 00:51:14;;;;;;;15.53;11.43;;;13.80;99.90;;;;;;5097965;28;20440;-72
2021/11/04 00:53:42;;;;;;;13.40;10.10;;;13.80;99.90;;;;;;5097888;28;20412;-72
2021/11/04 00:56:17;;;;;;;14.00;10.83;;;13.80;99.90;;;;;;5097425;28;20490;-77
2021/11/04 00:58:50;;;;;;;13.83;9.93;;;13.90;99.90;;;;;;5097307;28;20383;-75
2021/11/04 01:01:22;;;;;;;15.97;11.23;;;13.90;99.90;;;;;;5115442;28;20448;-75
2021/11/04 01:03:50;;;;;;;13.87;10.00;;;14.00;99.90;;;;;;5097431;28;20844;-72
2021/11/04 01:06:20;;;;;;;11.80;8.57;;;14.00;99.90;;;;;;5097244;28;20478;-71
2021/11/04 01:08:47;;;;;;;12.30;10.03;;;14.00;99.90;;;;;;5115618;28;20394;-72
2021/11/04 01:11:14;;;;;;;12.93;9.50;;;14.00;99.90;;;;;;5097026;28;20471;-72
2021/11/04 01:13:41;;;;;;;15.70;10.07;;;14.00;99.90;;;;;;5097300;28;20499;-72
2021/11/04 01:16:08;;;;;;;12.40;10.40;;;14.00;99.90;;;;;;5097137;28;20479;-72
2021/11/04 01:18:39;;;;;;;14.63;10.00;;;14.10;99.90;;;;;;5096878;28;20382;-75
2021/11/04 01:21:18;;;;;;;11.50;9.73;;;14.10;99.90;;;;;;5096748;28;20431;-75
2021/11/04 01:23:49;;;;;;;15.90;10.43;;;14.10;99.90;;;;;;5097299;28;20423;-71
2021/11/04 01:26:23;;;;;;;12.80;9.50;;;14.10;99.90;;;;;;5097090;28;20439;-75
2021/11/04 01:28:59;;;;;;;17.93;11.20;;;14.10;99.90;;;;;;5096775;28;20427;-76
2021/11/04 01:31:26;;;;;;;14.27;9.87;;;14.20;99.90;;;;;;5096910;28;20407;-72
2021/11/04 01:33:54;;;;;;;12.20;8.53;;;14.20;99.90;;;;;;5096605;28;20473;-75
2021/11/04 01:36:20;;;;;;;13.80;9.63;;;14.20;99.90;;;;;;5096682;28;20555;-75
2021/11/04 01:38:49;;;;;;;12.53;10.13;;;14.20;99.90;;;;;;5097000;28;20463;-71
2021/11/04 01:41:16;;;;;;;11.93;9.97;;;14.30;99.90;;;;;;5096374;28;20466;-72
2021/11/04 01:43:43;;;;;;;13.50;8.97;;;14.30;99.90;;;;;;5097024;28;20420;-72
2021/11/04 01:46:15;;;;;;;12.53;9.30;;;14.30;99.90;;;;;;5097046;28;20450;-75
2021/11/04 01:48:48;;;;;;;13.57;8.80;;;14.30;99.90;;;;;;5027486;28;20499;-75
2021/11/04 01:51:24;;;;;;;14.53;10.13;;;14.40;99.90;;;;;;5096425;28;20474;-72
2021/11/04 01:54:01;;;;;;;15.90;10.60;;;14.40;99.90;;;;;;5096410;28;20430;-75
2021/11/04 01:56:28;;;;;;;12.50;10.07;;;14.40;99.90;;;;;;5096564;28;20550;-71
2021/11/04 01:58:58;;;;;;;11.13;8.43;;;14.50;99.90;;;;;;5096322;28;20416;-72
2021/11/04 02:01:24;;;;;;;15.20;9.60;;;14.50;99.90;;;;;;5115065;28;20824;-75
2021/11/04 02:04:05;;;;;;;12.20;10.23;;;14.50;99.90;;;;;;5096171;28;20407;-75
2021/11/04 02:06:48;;;;;;;11.53;9.87;;;14.60;99.90;;;;;;5095886;28;20402;-74
2021/11/04 02:09:28;;;;;;;13.57;9.30;;;14.60;99.90;;;;;;5096340;28;20930;-71
2021/11/04 02:12:30;;;;;;;13.27;9.50;;;14.60;99.90;;;;;;5096116;28;20762;-71
2021/11/04 02:14:59;;;;;;;14.27;9.80;;;14.60;99.90;;;;;;5096084;28;20447;-71
2021/11/04 02:17:28;;;;;;;10.80;8.60;;;14.60;99.90;;;;;;5095989;28;20834;-72
2021/11/04 02:19:57;;;;;;;13.30;10.63;;;14.70;99.90;;;;;;5026604;28;20497;-72
2021/11/04 02:22:51;;;;;;;12.93;9.70;;;14.70;99.90;;;;;;5096176;28;20412;-72
2021/11/04 02:25:28;;;;;;;20.40;10.73;;;14.70;99.90;;;;;;5095852;28;20463;-75
2021/11/04 02:28:04;;;;;;;13.00;8.83;;;14.80;99.90;;;;;;5096004;28;20481;-75
2021/11/04 02:30:33;;;;;;;15.17;10.27;;;14.80;99.90;;;;;;5095966;28;21010;-72
2021/11/04 02:33:00;;;;;;;12.63;9.53;;;14.80;99.90;;;;;;5095925;28;20408;-70
2021/11/04 02:35:52;;;;;;;12.93;9.43;;;14.90;99.90;;;;;;5095793;28;20478;-75
2021/11/04 02:38:37;;;;;;;12.00;8.07;;;14.90;99.90;;;;;;5113963;28;20427;-72
2021/11/04 02:41:12;;;;;;;11.33;8.53;;;14.90;99.90;;;;;;5095934;28;20456;-76
2021/11/04 02:43:45;;;;;;;12.90;8.97;;;15.00;99.90;;;;;;5096047;28;20412;-76
2021/11/04 02:46:17;;;;;;;11.40;8.50;;;15.00;99.90;;;;;;5096125;28;20489;-72
2021/11/04 02:48:45;;;;;;;11.30;8.30;;;15.10;99.90;;;;;;5095834;28;20416;-72
2021/11/04 02:51:19;;;;;;;11.37;7.97;;;15.10;99.90;;;;;;5114263;28;21099;-72
2021/11/04 02:53:49;;;;;;;11.37;8.10;;;15.10;99.90;;;;;;5099339;28;20476;-70
2021/11/04 02:56:19;;;;;;;12.00;7.90;;;15.20;99.90;;;;;;5099673;28;20460;-74
2021/11/04 02:58:58;;;;;;;10.70;7.13;;;15.20;99.90;;;;;;5099966;28;20416;-75
2021/11/04 03:01:27;;;;;;;11.57;8.40;;;15.30;99.90;;;;;;5099787;28;20827;-70
2021/11/04 03:03:56;;;;;;;10.70;8.50;;;15.30;99.90;;;;;;5099269;28;20420;-72
2021/11/04 03:06:22;;;;;;;9.50;7.50;;;15.30;99.90;;;;;;5099402;28;20438;-72
2021/11/04 03:11:28;;;;;;;10.07;7.90;;;15.40;99.90;;;;;;5062278;22;20878;-71
2021/11/04 03:13:57;;;;;;;9.67;7.97;;;15.50;99.90;;;;;;5122862;27;20445;-75
2021/11/04 03:16:25;;;;;;;8.87;7.50;;;15.50;99.90;;;;;;5106087;27;20496;-75
2021/11/04 03:18:58;;;;;;;12.50;7.60;;;15.50;99.90;;;;;;5106044;27;20434;-75
2021/11/04 03:21:27;;;;;;;10.43;7.23;;;15.60;99.90;;;;;;5122638;27;20403;-72
2021/11/04 03:24:09;;;;;;;8.53;7.37;;;15.60;99.90;;;;;;5122972;27;20434;-76
2021/11/04 03:26:40;;;;;;;16.53;8.47;;;15.60;99.90;;;;;;5122769;27;20419;-70
2021/11/04 03:29:16;;;;;;;10.57;8.50;;;15.60;99.90;;;;;;5053605;28;20423;-75
2021/11/04 03:31:44;;;;;;;10.73;8.30;;;15.60;99.90;;;;;;5122921;27;20789;-71
2021/11/04 03:34:11;;;;;;;10.77;8.17;;;15.60;99.90;;;;;;5121931;27;20431;-75
2021/11/04 03:36:46;;;;;;;12.60;8.30;;;15.60;99.90;;;;;;5122485;27;20474;-75
2021/11/04 03:39:14;;;;;;;8.03;7.07;;;15.60;99.90;;;;;;5122501;27;20426;-75
2021/11/04 03:41:49;;;;;;;12.37;9.30;;;15.60;99.90;;;;;;5121406;27;20505;-71
2021/11/04 03:44:24;;;;;;;11.70;7.43;;;15.70;99.90;;;;;;5122720;27;20502;-75
2021/11/04 03:46:52;;;;;;;8.40;7.33;;;15.70;99.90;;;;;;5122489;27;20419;-71
2021/11/04 03:49:26;;;;;;;12.80;8.53;;;15.70;99.90;;;;;;5121994;27;20463;-73
2021/11/04 03:51:59;;;;;;;7.83;7.10;;;15.70;99.90;;;;;;5122254;27;20462;-71
2021/11/04 03:54:33;;;;;;;9.37;7.03;;;15.70;99.90;;;;;;5121712;27;20450;-75
2021/11/04 03:57:05;;;;;;;18.40;13.33;;;15.70;99.90;;;;;;5122153;27;20513;-75
2021/11/04 03:59:34;;;;;;;14.23;10.20;;;15.80;99.90;;;;;;5121407;27;20450;-70
2021/11/04 04:02:00;;;;;;;11.30;8.10;;;15.80;99.90;;;;;;5121740;27;20460;-72
2021/11/04 04:04:51;;;;;;;12.43;7.80;;;15.80;99.90;;;;;;5121802;27;20590;-75
2021/11/04 04:07:27;;;;;;;13.13;7.27;;;15.80;99.90;;;;;;5055756;27;20422;-75
2021/11/04 04:10:03;;;;;;;13.27;8.27;;;15.80;99.90;;;;;;5121972;27;20481;-75
2021/11/04 04:12:31;;;;;;;8.67;6.83;;;15.80;99.90;;;;;;5122335;27;20430;-72
2021/11/04 04:15:06;;;;;;;12.33;7.50;;;15.80;99.90;;;;;;5121634;27;20463;-75
2021/11/04 04:17:33;;;;;;;9.17;7.90;;;15.80;99.90;;;;;;5122348;27;20237;-71
2021/11/04 04:19:59;;;;;;;9.37;8.20;;;15.80;99.90;;;;;;5121581;27;20506;-72
2021/11/04 04:22:53;;;;;;;9.43;7.37;;;15.80;99.90;;;;;;5121661;27;20775;-75
2021/11/04 04:25:18;;;;;;;10.00;7.20;;;15.80;99.90;;;;;;5121254;27;20455;-72
2021/11/04 04:27:49;;;;;;;10.37;7.20;;;15.80;99.90;;;;;;5121755;27;20430;-72
2021/11/04 04:32:53;;;;;;;8.70;7.80;;;15.90;99.90;;;;;;5152495;27;20588;-76
2021/11/04 04:35:22;;;;;;;9.80;7.60;;;15.90;99.90;;;;;;5110689;28;20939;-72
2021/11/04 04:37:53;;;;;;;8.20;7.30;;;15.90;99.90;;;;;;5111593;28;20413;-76
2021/11/04 04:40:37;;;;;;;9.37;8.07;;;15.90;99.90;;;;;;5111702;28;20428;-75
2021/11/04 04:43:08;;;;;;;11.73;7.20;;;16.00;99.90;;;;;;5093385;28;20400;-76
2021/11/04 04:45:41;;;;;;;11.43;7.97;;;16.00;99.90;;;;;;5093046;28;20501;-73
2021/11/04 04:48:13;;;;;;;11.47;7.63;;;16.00;99.90;;;;;;5093215;28;20947;-76
2021/11/04 04:50:42;;;;;;;9.33;6.37;;;16.10;99.90;;;;;;5092959;28;20525;-75
2021/11/04 04:53:10;;;;;;;8.80;7.57;;;16.10;99.90;;;;;;5093528;28;20442;-76
2021/11/04 04:55:39;;;;;;;8.50;6.90;;;16.10;99.90;;;;;;5093045;28;20810;-76
2021/11/04 04:58:09;;;;;;;9.07;7.73;;;16.10;99.90;;;;;;5093395;28;20993;-72
2021/11/04 05:00:36;;;;;;;11.07;9.10;;;16.10;99.90;;;;;;5092547;28;20807;-73
2021/11/04 05:03:06;;;;;;;11.13;7.47;;;16.00;99.90;;;;;;5092637;28;20484;-73
2021/11/04 05:05:46;;;;;;;14.00;8.27;;;16.00;99.90;;;;;;5089287;28;20433;-75
2021/11/04 05:08:20;;;;;;;7.77;5.20;;;16.00;99.90;;;;;;5092850;28;20423;-76
2021/11/04 05:10:48;;;;;;;9.30;6.80;;;15.90;99.90;;;;;;5092707;28;20798;-73
2021/11/04 05:13:14;;;;;;;8.93;6.97;;;15.90;99.90;;;;;;5093164;28;20946;-76
2021/11/04 05:15:42;;;;;;;9.43;7.30;;;15.90;99.90;;;;;;5111190;28;20432;-72
2021/11/04 05:18:09;;;;;;;10.90;6.67;;;15.90;99.90;;;;;;5111068;28;20412;-73
2021/11/04 05:21:08;;;;;;;10.97;6.60;;;15.90;99.90;;;;;;5092536;28;20435;-75
2021/11/04 05:23:44;;;;;;;10.63;6.30;;;16.00;99.90;;;;;;5092749;28;20499;-73
2021/11/04 05:26:17;;;;;;;8.80;6.73;;;16.00;99.90;;;;;;5092609;28;20438;-73
2021/11/04 05:28:47;;;;;;;8.20;6.50;;;16.00;99.90;;;;;;5092363;28;20420;-72
2021/11/04 05:31:16;;;;;;;9.50;6.60;;;16.10;99.90;;;;;;5091713;28;20587;-73
2021/11/04 05:33:43;;;;;;;7.70;6.90;;;16.10;99.90;;;;;;5092266;28;20916;-76
2021/11/04 05:36:11;;;;;;;7.50;6.50;;;16.10;99.90;;;;;;5092389;28;20545;-72
2021/11/04 05:38:38;;;;;;;8.67;6.20;;;16.20;99.90;;;;;;5092734;28;20408;-72
2021/11/04 05:41:07;;;;;;;9.10;6.77;;;16.20;99.90;;;;;;5091712;28;20992;-73
2021/11/04 05:43:45;;;;;;;10.97;7.20;;;16.20;99.90;;;;;;5082086;28;20413;-76
2021/11/04 05:46:12;;;;;;;8.77;6.80;;;16.20;99.90;;;;;;5078581;28;20470;-72
2021/11/04 05:48:40;;;;;;;8.37;6.37;;;16.20;99.90;;;;;;5079536;28;20905;-76
2021/11/04 05:51:08;;;;;;;10.77;8.00;;;16.30;99.90;;;;;;5078378;28;20567;-73
2021/11/04 05:53:34;;;;;;;11.70;6.07;;;16.20;99.90;;;;;;5077450;28;20496;-73
2021/11/04 05:56:02;;;;;;;9.60;6.13;;;16.20;99.90;;;;;;5075915;28;20491;-72
2021/11/04 05:58:35;;;;;;;11.93;7.30;;;16.30;99.90;;;;;;5076411;28;20451;-76
2021/11/04 06:01:31;;;;;;;15.30;6.60;;;16.30;99.90;;;;;;5075579;28;20489;-72
2021/11/04 06:03:58;;;;;;;9.00;6.40;;;16.30;99.90;;;;;;5065116;28;20479;-72
2021/11/04 06:06:30;;;;;;;8.73;6.77;;;16.40;99.90;;;;;;5061031;28;20476;-76
2021/11/04 06:09:01;;;;;;;9.20;7.73;;;16.40;99.90;;;;;;5075683;28;20853;-73
2021/11/04 06:11:28;;;;;;;10.07;7.00;;;16.50;99.90;;;;;;5094232;28;20821;-73
2021/11/04 06:14:11;;;;;;;12.70;7.73;;;16.50;99.90;;;;;;5077132;28;20430;-77
2021/11/04 06:16:41;;;;;;;9.47;6.07;;;16.50;99.90;;;;;;5077383;28;20435;-75
2021/11/04 06:19:13;;;;;;;10.00;7.30;;;16.50;99.90;;;;;;5055431;28;20827;-76
2021/11/04 06:21:47;;;;;;;14.77;6.80;;;16.50;99.90;;;;;;5063714;28;20440;-76
2021/11/04 06:24:17;;;;;;;10.40;6.43;;;16.60;99.90;;;;;;5077260;28;20963;-71
2021/11/04 06:26:49;;;;;;;8.90;6.67;;;16.60;99.90;;;;;;5075326;28;20492;-73
2021/11/04 06:29:22;;;;;;;10.40;7.10;;;16.60;99.90;;;;;;5075525;28;20428;-76
2021/11/04 06:31:50;;;;;;;9.50;6.10;;;16.60;99.90;;;;;;5072992;28;20916;-76
2021/11/04 06:34:19;;;;;;;13.37;7.47;;;16.60;99.90;;;;;;5075048;28;20418;-73
2021/11/04 06:36:56;;;;;;;8.27;6.10;;;16.70;99.90;;;;;;5077571;28;20416;-76
2021/11/04 06:39:31;;;;;;;10.03;6.20;;;16.70;99.90;;;;;;5073545;28;20495;-76
2021/11/04 06:41:59;;;;;;;8.70;5.97;;;16.70;99.90;;;;;;5060514;28;20437;-71
2021/11/04 06:44:35;;;;;;;12.33;6.57;;;16.80;99.90;;;;;;5070782;28;20471;-77
2021/11/04 06:47:02;;;;;;;6.60;5.90;;;16.80;99.90;;;;;;5076146;28;20486;-72
2021/11/04 06:49:36;;;;;;;9.87;6.30;;;16.80;99.90;;;;;;5058000;28;21035;-73
2021/11/04 06:52:02;;;;;;;7.97;6.40;;;16.90;99.90;;;;;;5071536;28;20479;-73
2021/11/04 06:54:32;;;;;;;10.97;6.27;;;16.90;99.90;;;;;;5060994;28;20455;-72
2021/11/04 06:57:28;;;;;;;7.93;5.90;;;16.90;99.90;;;;;;5073281;28;20479;-77
2021/11/04 07:03:20;;;;;;;10.27;7.07;;;16.90;99.90;;;;;;5089996;28;20400;-73
2021/11/04 07:05:46;;;;;;;15.80;6.57;;;17.00;99.90;;;;;;5074766;28;20577;-73
2021/11/04 07:08:22;;;;;;;8.40;5.67;;;17.00;99.90;;;;;;5073607;28;20414;-77
2021/11/04 07:10:48;;;;;;;9.50;6.20;;;17.00;99.90;;;;;;5073849;28;20500;-73
2021/11/04 07:13:15;;;;;;;8.77;6.00;;;17.00;99.90;;;;;;5070053;28;20408;-70
2021/11/04 07:15:49;;;;;;;11.13;6.17;;;17.10;99.90;;;;;;5069155;28;20540;-75
2021/11/04 07:18:21;;;;;;;10.47;7.17;;;17.10;99.90;;;;;;5070388;28;20394;-75
2021/11/04 07:21:22;;;;;;;7.40;6.00;;;17.10;99.90;;;;;;5089366;28;20477;-75
2021/11/04 07:23:53;;;;;;;11.93;6.90;;;17.10;99.90;;;;;;5062881;28;20437;-75
2021/11/04 07:26:29;;;;;;;11.20;6.67;;;17.20;99.90;;;;;;5091997;28;20417;-75
2021/11/04 07:29:12;;;;;;;8.87;5.60;;;17.20;99.90;;;;;;5073830;28;20394;-75
2021/11/04 07:32:05;;;;;;;10.67;6.47;;;17.30;99.90;;;;;;5060241;28;21009;-76
2021/11/04 07:34:42;;;;;;;10.10;6.40;;;17.30;99.90;;;;;;5050269;28;20517;-76
2021/11/04 07:37:14;;;;;;;15.00;7.30;;;17.40;99.90;;;;;;5049607;28;20444;-72
2021/11/04 07:39:46;;;;;;;9.73;6.53;;;17.40;99.90;;;;;;5047295;28;20529;-72
2021/11/04 07:42:12;;;;;;;7.73;5.60;;;17.50;99.90;;;;;;5047911;28;20401;-75
2021/11/04 07:44:39;;;;;;;9.30;5.87;;;17.50;99.90;;;;;;5048446;28;20427;-75
2021/11/04 07:47:07;;;;;;;10.03;6.03;;;17.50;99.90;;;;;;5048519;28;20511;-72
2021/11/04 07:49:34;;;;;;;8.30;6.07;;;17.60;99.90;;;;;;5047079;28;20435;-72
2021/11/04 07:52:17;;;;;;;14.13;6.57;;;17.60;99.90;;;;;;5048447;28;20501;-76
2021/11/04 07:54:49;;;;;;;13.73;6.17;;;17.60;99.90;;;;;;5050802;28;20454;-72
2021/11/04 07:57:16;;;;;;;11.73;6.57;;;17.70;99.90;;;;;;5048729;28;20811;-71
2021/11/04 08:00:07;;;;;;;9.17;6.13;;;17.70;99.90;;;;;;5064148;28;20470;-76
2021/11/04 08:02:35;;;;;;;8.73;6.00;;;17.80;99.90;;;;;;5049588;28;20409;-72
2021/11/04 08:05:05;;;;;;;10.70;6.23;;;17.80;99.90;;;;;;5049324;28;20806;-71
2021/11/04 08:07:53;;;;;;;13.27;6.40;;;17.90;99.90;;;;;;5050451;28;20766;-75
2021/11/04 08:10:19;;;;;;;9.13;6.73;;;17.90;99.90;;;;;;5051216;28;20471;-71
2021/11/04 08:12:48;;;;;;;10.13;6.07;;;18.00;99.90;;;;;;5047400;28;20470;-75
2021/11/04 08:15:18;;;;;;;9.90;5.70;;;18.00;99.90;;;;;;5051738;28;20835;-72
2021/11/04 08:17:47;;;;;;;8.03;5.40;;;18.10;99.90;;;;;;5051300;28;20894;-76
2021/11/04 08:20:22;;;;;;;8.23;5.30;;;18.10;99.90;;;;;;5052397;28;20413;-75
2021/11/04 08:22:54;;;;;;;8.97;6.07;;;18.20;99.90;;;;;;5051958;28;20462;-71
2021/11/04 08:25:37;;;;;;;10.20;5.87;;;18.20;99.90;;;;;;5052303;28;20806;-74
2021/11/04 08:28:06;;;;;;;9.63;5.10;;;18.20;99.90;;;;;;5051401;28;20459;-72
2021/11/04 08:30:39;;;;;;;9.27;5.47;;;18.30;99.90;;;;;;5053170;28;20428;-72
2021/11/04 08:33:05;;;;;;;12.03;6.40;;;18.50;99.90;;;;;;5072423;28;20917;-70
2021/11/04 08:35:37;;;;;;;7.17;5.40;;;18.50;99.90;;;;;;5073013;28;20412;-71
2021/11/04 08:38:07;;;;;;;8.93;5.60;;;18.60;99.90;;;;;;5073002;28;20414;-70
2021/11/04 08:40:36;;;;;;;14.33;7.63;;;18.60;99.90;;;;;;5071997;28;20407;-71
2021/11/04 08:43:07;;;;;;;11.87;6.10;;;18.70;99.90;;;;;;5073141;28;20471;-75
2021/11/04 08:45:36;;;;;;;7.20;5.07;;;18.80;99.90;;;;;;5074088;28;20446;-72
2021/11/04 08:51:17;;;;;;;8.80;5.80;;;19.00;99.90;;;;;;5119080;22;20489;-87
2021/11/04 08:53:45;;;;;;;11.87;6.23;;;19.10;99.90;;;;;;5063161;28;20432;-87
2021/11/04 08:56:11;;;;;;;9.33;5.60;;;19.30;99.90;;;;;;5079607;28;20570;-88
2021/11/04 08:58:37;;;;;;;8.93;5.90;;;19.40;99.90;;;;;;5069051;28;20403;-87
2021/11/04 09:01:05;;;;;;;9.43;5.67;;;19.50;99.90;;;;;;5062243;28;20781;-94
2021/11/04 09:03:30;;;;;;;12.50;6.30;;;19.60;99.90;;;;;;5066552;28;20179;-93
2021/11/04 09:05:56;;;;;;;10.73;6.03;;;19.60;99.90;;;;;;5080383;28;20441;-87
2021/11/04 09:08:23;;;;;;;16.07;6.50;;;19.70;99.90;;;;;;5038852;28;20992;-94
2021/11/04 09:10:49;;;;;;;8.63;5.07;;;19.80;99.90;;;;;;5038293;28;20474;-94
2021/11/04 09:13:15;;;;;;;11.90;5.30;;;19.80;99.90;;;;;;5040928;28;20451;-93
2021/11/04 09:15:41;;;;;;;8.63;6.57;;;19.90;99.90;;;;;;5044408;28;20322;-94
2021/11/04 09:18:11;;;;;;;7.87;5.50;;;20.00;99.90;;;;;;5051977;28;20962;-87
2021/11/04 09:20:39;;;;;;;7.60;5.43;;;19.90;99.90;;;;;;5072181;28;20239;-87
2021/11/04 09:23:06;;;;;;;9.07;6.87;;;19.90;99.90;;;;;;5057317;28;20456;-94
2021/11/04 09:25:32;;;;;;;7.90;5.90;;;19.90;99.90;;;;;;5083745;28;20237;-88
2021/11/04 09:27:58;;;;;;;9.80;5.87;;;19.90;99.90;;;;;;5058082;28;20459;-93
2021/11/04 09:30:25;;;;;;;10.30;6.27;;;19.90;99.90;;;;;;5071607;28;20657;-92
2021/11/04 09:32:51;;;;;;;8.00;5.40;;;19.80;99.90;;;;;;5063054;28;20475;-93
2021/11/04 09:35:18;;;;;;;10.00;6.47;;;19.80;99.90;;;;;;5057799;28;20461;-86
2021/11/04 09:37:44;;;;;;;9.13;5.53;;;19.80;99.90;;;;;;5052444;28;20428;-94
2021/11/04 09:40:15;;;;;;;9.97;7.03;;;19.80;99.90;;;;;;5050898;28;20469;-90
2021/11/04 09:42:42;;;;;;;8.53;5.90;;;19.80;99.90;;;;;;5049691;28;20575;-95
2021/11/04 09:45:08;;;;;;;8.40;6.17;;;19.80;99.90;;;;;;5052304;28;20495;-94
2021/11/04 09:47:34;;;;;;;7.60;5.43;;;19.90;99.90;;;;;;5055198;28;20443;-94
2021/11/04 09:50:07;;;;;;;10.73;6.00;;;20.00;99.90;;;;;;5051494;28;20509;-87
2021/11/04 09:52:35;;;;;;;11.50;5.87;;;20.00;99.90;;;;;;5045148;28;20480;-94
2021/11/04 09:55:02;;;;;;;6.77;5.50;;;20.10;99.90;;;;;;5044752;28;20526;-93
2021/11/04 09:57:28;;;;;;;9.90;6.17;;;20.10;99.90;;;;;;5051764;28;20442;-88
2021/11/04 09:59:55;;;;;;;11.83;6.77;;;20.20;99.90;;;;;;5042752;28;20482;-88
2021/11/04 10:02:23;;;;;;;7.57;5.90;;;20.20;99.90;;;;;;5044058;28;20195;-94
2021/11/04 10:04:50;;;;;;;10.50;5.87;;;20.30;99.90;;;;;;5039071;28;20474;-94
2021/11/04 10:07:17;;;;;;;9.20;5.20;;;20.50;99.90;;;;;;5037092;28;20437;-95
2021/11/04 10:10:01;;;;;;;9.07;5.83;;;20.70;99.90;;;;;;5048106;28;20451;-87
2021/11/04 10:12:27;;;;;;;8.70;4.87;;;20.90;99.90;;;;;;5039395;28;20488;-88
2021/11/04 10:14:55;;;;;;;13.83;5.77;;;21.10;99.90;;;;;;5033650;28;20456;-93
2021/11/04 10:17:39;;;;;;;17.30;5.33;;;21.20;99.90;;;;;;5046829;28;20457;-88
2021/11/04 10:20:18;;;;;;;9.73;5.17;;;21.30;99.90;;;;;;5037816;28;20454;-95
2021/11/04 10:22:57;;;;;;;9.13;6.10;;;21.50;99.90;;;;;;5043923;28;20467;-88
2021/11/04 10:25:28;;;;;;;10.90;5.27;;;21.70;99.90;;;;;;5054451;28;20494;-94
2021/11/04 10:27:54;;;;;;;11.60;6.13;;;21.80;99.90;;;;;;5052943;28;20419;-87
2021/11/04 10:30:41;;;;;;;10.40;5.30;;;21.90;99.90;;;;;;5037294;28;20450;-87
2021/11/04 10:33:50;;;;;;;8.03;5.60;;;22.00;99.90;;;;;;5042895;28;20972;-88
2021/11/04 10:36:17;;;;;;;8.80;5.03;;;22.00;99.90;;;;;;5016517;28;20468;-94
2021/11/04 10:38:47;;;;;;;9.93;5.97;;;22.00;99.90;;;;;;5002736;28;20436;-88
2021/11/04 10:41:18;;;;;;;10.37;5.37;;;22.00;99.90;;;;;;5028366;28;20456;-95
2021/11/04 10:43:47;;;;;;;8.13;5.10;;;21.90;99.90;;;;;;5040675;28;20451;-88
2021/11/04 10:46:15;;;;;;;7.70;5.53;;;21.90;99.90;;;;;;5038873;28;20450;-88
2021/11/04 10:48:43;;;;;;;6.87;3.70;;;22.00;99.90;;;;;;5043451;28;20441;-88
2021/11/04 10:51:18;;;;;;;9.80;4.90;;;22.10;99.90;;;;;;5043771;28;20486;-88
2021/11/04 10:53:54;;;;;;;11.17;5.10;;;22.20;99.90;;;;;;5041542;28;20442;-88
2021/11/04 10:56:24;;;;;;;8.90;4.93;;;22.30;99.90;;;;;;5044167;28;21140;-94
2021/11/04 10:59:14;;;;;;;8.33;5.13;;;22.30;99.90;;;;;;5049282;28;20892;-94
2021/11/04 11:01:44;;;;;;;11.70;4.90;;;22.30;99.90;;;;;;5048095;28;20506;-89
2021/11/04 11:04:18;;;;;;;9.80;6.70;;;22.20;99.90;;;;;;5066011;28;20446;-87
2021/11/04 11:06:53;;;;;;;15.43;5.80;;;22.20;99.90;;;;;;5051077;28;20431;-95
2021/11/04 11:09:20;;;;;;;7.20;4.33;;;22.20;99.90;;;;;;5040593;28;20482;-89
2021/11/04 11:11:48;;;;;;;9.53;5.13;;;22.20;99.90;;;;;;5044745;28;20486;-87
2021/11/04 11:14:15;;;;;;;7.80;5.10;;;22.30;99.90;;;;;;5033159;28;20534;-88
2021/11/04 11:16:51;;;;;;;7.10;5.40;;;22.30;99.90;;;;;;5037140;28;21117;-93
2021/11/04 11:19:20;;;;;;;11.63;5.40;;;22.30;99.90;;;;;;5045606;28;20983;-87
2021/11/04 11:21:50;;;;;;;12.40;5.13;;;22.30;99.90;;;;;;5038070;28;20420;-87
2021/11/04 11:24:37;;;;;;;6.20;4.80;;;22.30;99.90;;;;;;5038379;28;20464;-87
2021/11/04 11:27:07;;;;;;;8.50;5.83;;;22.30;99.90;;;;;;5040682;28;20422;-94
2021/11/04 11:29:44;;;;;;;11.27;5.50;;;22.30;99.90;;;;;;5049281;28;20554;-87
2021/11/04 11:32:27;;;;;;;7.83;5.43;;;22.30;99.90;;;;;;5057087;28;20653;-93
2021/11/04 11:35:16;;;;;;;9.57;5.40;;;22.30;99.90;;;;;;5059540;28;20446;-93
2021/11/04 11:38:08;;;;;;;9.53;5.13;;;22.30;99.90;;;;;;5052963;28;20422;-93
2021/11/04 11:40:38;;;;;;;7.50;4.63;;;22.40;99.90;;;;;;5061301;28;20470;-87
2021/11/04 11:43:14;;;;;;;9.70;5.20;;;22.50;99.90;;;;;;5061262;28;20411;-89
2021/11/04 11:45:42;;;;;;;11.23;4.87;;;22.50;99.90;;;;;;5051700;28;21013;-94
2021/11/04 11:48:23;;;;;;;9.80;5.20;;;22.60;99.90;;;;;;5047123;28;20923;-86
2021/11/04 11:50:50;;;;;;;9.60;5.67;;;22.60;99.90;;;;;;5049543;28;20557;-87
2021/11/04 11:53:25;;;;;;;11.77;10.07;;;22.60;99.90;;;;;;5048734;28;20925;-93
2021/11/04 11:55:54;;;;;;;14.10;10.77;;;22.60;99.90;;;;;;5053186;28;21006;-87
2021/11/04 11:58:31;;;;;;;16.20;11.63;;;22.50;99.90;;;;;;5043122;28;20443;-94
2021/11/04 12:01:09;;;;;;;12.50;9.90;;;22.40;99.90;;;;;;5078742;28;20493;-87
2021/11/04 12:03:38;;;;;;;14.20;10.70;;;22.20;99.90;;;;;;5041400;28;20430;-86
2021/11/04 12:06:04;;;;;;;11.27;10.17;;;22.00;99.90;;;;;;5046045;28;20469;-88
2021/11/04 12:08:33;;;;;;;12.43;11.13;;;21.90;99.90;;;;;;5039900;28;20432;-94
2021/11/04 12:10:59;;;;;;;11.07;9.23;;;21.80;99.90;;;;;;5044650;28;20485;-92
2021/11/04 12:13:34;;;;;;;11.63;9.23;;;21.70;99.90;;;;;;5044469;28;20958;-87
2021/11/04 12:16:14;;;;;;;8.93;7.90;;;21.60;99.90;;;;;;5057530;28;20482;-93
2021/11/04 12:19:03;;;;;;;7.23;6.47;;;21.50;99.90;;;;;;5055923;28;20860;-87
2021/11/04 12:21:35;;;;;;;8.83;6.50;;;21.40;99.90;;;;;;5050675;28;20524;-94
2021/11/04 12:24:08;;;;;;;7.70;6.43;;;21.30;99.90;;;;;;5047556;28;20520;-93
2021/11/04 12:26:40;;;;;;;9.50;7.07;;;21.30;99.90;;;;;;5052643;28;20442;-87
2021/11/04 12:29:11;;;;;;;12.87;7.40;;;21.20;99.90;;;;;;5046421;28;20556;-94
2021/11/04 12:31:40;;;;;;;8.57;6.67;;;21.20;99.90;;;;;;5043186;28;20554;-87
2021/11/04 12:34:06;;;;;;;6.53;5.93;;;21.10;99.90;;;;;;5055013;28;20790;-88
2021/11/04 12:36:41;;;;;;;7.10;5.60;;;21.10;99.90;;;;;;5048761;28;20870;-87
2021/11/04 12:39:32;;;;;;;7.77;6.70;;;21.10;99.90;;;;;;5044775;28;20885;-87
2021/11/04 12:42:03;;;;;;;6.70;6.07;;;21.00;99.90;;;;;;5047088;28;20505;-87
2021/11/04 12:44:31;;;;;;;6.63;6.03;;;21.00;99.90;;;;;;5045875;28;20446;-93
2021/11/04 12:46:58;;;;;;;9.73;5.83;;;20.90;99.90;;;;;;5046702;28;20428;-94
2021/11/04 12:49:31;;;;;;;5.60;5.10;;;20.90;99.90;;;;;;5047881;28;20468;-94
2021/11/04 12:51:59;;;;;;;5.87;5.20;;;20.80;99.90;;;;;;5048125;28;21067;-94
2021/11/04 12:54:34;;;;;;;5.77;5.27;;;20.70;99.90;;;;;;5068962;28;20524;-87
2021/11/04 12:57:15;;;;;;;4.83;4.40;;;20.70;99.90;;;;;;5085196;28;20440;-87
2021/11/04 12:59:59;;;;;;;6.47;4.77;;;20.60;99.90;;;;;;5050429;28;20451;-94
2021/11/04 13:02:29;;;;;;;4.67;4.27;;;20.60;99.90;;;;;;5051854;28;20972;-87
2021/11/04 13:05:04;;;;;;;4.53;4.13;;;20.60;99.90;;;;;;5052851;28;20457;-87
2021/11/04 13:07:36;;;;;;;5.80;4.77;;;20.50;99.90;;;;;;5071945;28;20573;-87
2021/11/04 13:10:09;;;;;;;5.13;4.63;;;20.50;99.90;;;;;;5051583;28;20438;-87
2021/11/04 13:12:44;;;;;;;7.00;4.83;;;20.50;99.90;;;;;;5053498;28;20469;-87
2021/11/04 13:15:24;;;;;;;4.90;4.17;;;20.40;99.90;;;;;;5044518;28;20795;-92
2021/11/04 13:17:58;;;;;;;5.87;4.30;;;20.40;99.90;;;;;;5061127;28;20485;-87
2021/11/04 13:20:29;;;;;;;4.10;3.80;;;20.40;99.90;;;;;;5058386;28;20548;-87